createdAt,value
2022-09-26T00:00:00.047Z,0
2022-09-26T00:00:57.540Z,0
2022-09-26T00:01:57.700Z,0
2022-09-26T00:02:57.602Z,0
2022-09-26T00:03:57.183Z,0
2022-09-26T00:04:57.309Z,0
2022-09-26T00:06:06.374Z,0
2022-09-26T00:06:57.063Z,0
2022-09-26T00:07:59.841Z,0
2022-09-26T00:08:57.216Z,0
2022-09-26T00:09:57.198Z,0
2022-09-26T00:11:00.358Z,0
2022-09-26T00:11:57.210Z,0
2022-09-26T00:12:57.234Z,0
2022-09-26T00:13:57.205Z,0
2022-09-26T00:14:57.375Z,0
2022-09-26T00:15:57.230Z,0
2022-09-26T00:16:57.530Z,0
2022-09-26T00:17:57.252Z,0
2022-09-26T00:18:57.223Z,0
2022-09-26T00:19:57.237Z,0
2022-09-26T00:20:57.232Z,0
2022-09-26T00:21:59.980Z,0
2022-09-26T00:22:57.236Z,0
2022-09-26T00:23:57.213Z,0
2022-09-26T00:24:57.215Z,0
2022-09-26T00:25:57.210Z,0
2022-09-26T00:27:00.258Z,0
2022-09-26T00:27:57.295Z,0
2022-09-26T00:29:00.263Z,0
2022-09-26T00:35:57.304Z,0
2022-09-26T00:36:57.276Z,0
2022-09-26T00:37:57.238Z,0
2022-09-26T00:38:57.255Z,0
2022-09-26T00:39:57.251Z,0
2022-09-26T00:41:02.076Z,0
2022-09-26T00:41:57.259Z,0
2022-09-26T00:42:57.288Z,0
2022-09-26T00:43:57.260Z,0
2022-09-26T00:44:57.243Z,0
2022-09-26T00:45:57.450Z,0
2022-09-26T00:46:57.240Z,0
2022-09-26T00:47:57.267Z,0
2022-09-26T00:48:57.255Z,0
2022-09-26T00:49:57.253Z,0
2022-09-26T00:50:57.286Z,0
2022-09-26T00:52:00.114Z,0
2022-09-26T00:52:57.337Z,0
2022-09-26T00:53:57.266Z,0
2022-09-26T00:54:57.341Z,0
2022-09-26T00:55:57.299Z,0
2022-09-26T00:57:00.319Z,0
2022-09-26T00:57:57.269Z,0
2022-09-26T00:58:57.312Z,0
2022-09-26T00:59:57.280Z,0
2022-09-26T01:00:57.745Z,0
2022-09-26T01:01:57.954Z,0
2022-09-26T01:03:00.378Z,0
2022-09-26T01:03:57.288Z,0
2022-09-26T01:05:00.312Z,0
2022-09-26T01:05:57.301Z,0
2022-09-26T01:06:57.343Z,0
2022-09-26T01:08:00.533Z,0
2022-09-26T01:08:57.301Z,0
2022-09-26T01:09:57.287Z,0
2022-09-26T01:10:57.386Z,0
2022-09-26T01:11:57.372Z,0
2022-09-26T01:13:00.087Z,0
2022-09-26T01:14:00.392Z,0
2022-09-26T01:14:57.414Z,0
2022-09-26T01:15:57.438Z,0
2022-09-26T01:16:57.591Z,0
2022-09-26T01:17:57.299Z,0
2022-09-26T01:19:00.390Z,0
2022-09-26T01:19:57.310Z,0
2022-09-26T01:20:57.328Z,0
2022-09-26T01:21:57.227Z,0
2022-09-26T01:22:57.449Z,0
2022-09-26T01:23:57.390Z,0
2022-09-26T01:25:00.895Z,0
2022-09-26T01:25:57.336Z,0
2022-09-26T01:26:57.378Z,0
2022-09-26T01:27:57.351Z,0
2022-09-26T01:28:57.343Z,0
2022-09-26T01:30:00.464Z,0
2022-09-26T01:30:57.629Z,0
2022-09-26T01:31:57.329Z,0
2022-09-26T01:32:57.359Z,0
2022-09-26T01:33:57.329Z,0
2022-09-26T01:34:57.563Z,0
2022-09-26T01:36:00.480Z,0
2022-09-26T01:36:57.349Z,0
2022-09-26T01:37:57.339Z,0
2022-09-26T01:38:57.392Z,0
2022-09-26T01:39:57.483Z,0
2022-09-26T01:41:01.176Z,0
2022-09-26T01:41:57.383Z,0
2022-09-26T01:42:57.540Z,0
2022-09-26T01:43:57.371Z,0
2022-09-26T01:44:57.349Z,0
2022-09-26T01:45:58.712Z,0
2022-09-26T01:47:00.355Z,0
2022-09-26T01:47:57.353Z,0
2022-09-26T01:48:57.375Z,0
2022-09-26T01:49:57.364Z,0
2022-09-26T01:50:57.384Z,0
2022-09-26T01:52:00.422Z,0
2022-09-26T01:52:57.367Z,0
2022-09-26T01:53:57.373Z,0
2022-09-26T01:54:57.371Z,0
2022-09-26T01:55:57.541Z,0
2022-09-26T01:56:57.426Z,0
2022-09-26T01:58:00.193Z,0
2022-09-26T01:58:57.371Z,0
2022-09-26T01:59:57.372Z,0
2022-09-26T02:00:57.833Z,0
2022-09-26T02:01:57.654Z,0
2022-09-26T02:03:00.605Z,0
2022-09-26T02:03:57.384Z,0
2022-09-26T02:04:57.384Z,0
2022-09-26T02:05:57.414Z,0
2022-09-26T02:06:57.547Z,0
2022-09-26T02:07:57.406Z,0
2022-09-26T02:09:00.160Z,0
2022-09-26T02:09:57.432Z,0
2022-09-26T02:10:57.411Z,0
2022-09-26T02:11:57.469Z,0
2022-09-26T02:12:57.396Z,0
2022-09-26T02:14:00.418Z,0
2022-09-26T02:14:57.416Z,0
2022-09-26T02:15:57.442Z,0
2022-09-26T02:16:57.797Z,0
2022-09-26T02:17:57.435Z,0
2022-09-26T02:18:57.564Z,0
2022-09-26T02:19:57.408Z,0
2022-09-26T02:20:57.450Z,0
2022-09-26T02:21:57.410Z,0
2022-09-26T02:22:57.425Z,0
2022-09-26T02:23:57.410Z,0
2022-09-26T02:25:00.185Z,0
2022-09-26T02:25:57.437Z,0
2022-09-26T02:26:57.423Z,0
2022-09-26T02:27:57.638Z,0
2022-09-26T02:28:57.424Z,0
2022-09-26T02:29:57.447Z,0
2022-09-26T02:30:57.442Z,0
2022-09-26T02:31:57.780Z,0
2022-09-26T02:32:57.430Z,0
2022-09-26T02:33:57.475Z,0
2022-09-26T02:34:57.451Z,0
2022-09-26T02:36:00.614Z,0
2022-09-26T02:36:57.439Z,0
2022-09-26T02:37:57.453Z,0
2022-09-26T02:38:57.431Z,0
2022-09-26T02:39:57.444Z,0
2022-09-26T02:40:57.760Z,0
2022-09-26T02:41:57.477Z,0
2022-09-26T02:42:57.451Z,0
2022-09-26T02:43:57.617Z,0
2022-09-26T02:44:57.466Z,0
2022-09-26T02:45:58.081Z,0
2022-09-26T02:46:57.454Z,0
2022-09-26T02:47:57.466Z,0
2022-09-26T02:48:57.466Z,0
2022-09-26T02:49:57.579Z,0
2022-09-26T02:50:57.487Z,0
2022-09-26T02:51:57.473Z,0
2022-09-26T02:52:57.466Z,0
2022-09-26T02:53:57.465Z,0
2022-09-26T02:54:57.469Z,0
2022-09-26T02:55:57.714Z,0
2022-09-26T02:56:57.470Z,0
2022-09-26T02:57:57.584Z,0
2022-09-26T02:58:57.504Z,0
2022-09-26T02:59:57.557Z,0
2022-09-26T03:00:57.843Z,0
2022-09-26T03:01:57.485Z,0
2022-09-26T03:02:57.477Z,0
2022-09-26T03:03:57.586Z,0
2022-09-26T03:04:57.895Z,0
2022-09-26T03:05:57.551Z,0
2022-09-26T03:06:57.485Z,0
2022-09-26T03:08:01.151Z,0
2022-09-26T03:08:57.502Z,0
2022-09-26T03:09:57.587Z,0
2022-09-26T03:10:57.528Z,0
2022-09-26T03:11:57.493Z,0
2022-09-26T03:12:57.495Z,0
2022-09-26T03:13:57.512Z,0
2022-09-26T03:15:03.307Z,0
2022-09-26T03:15:57.627Z,0
2022-09-26T03:16:57.853Z,0
2022-09-26T03:17:57.496Z,0
2022-09-26T03:19:00.393Z,0
2022-09-26T03:19:57.663Z,0
2022-09-26T03:20:57.528Z,0
2022-09-26T03:21:57.543Z,0
2022-09-26T03:22:57.503Z,0
2022-09-26T03:24:00.394Z,0
2022-09-26T03:24:57.517Z,0
2022-09-26T03:25:57.648Z,0
2022-09-26T03:26:57.719Z,0
2022-09-26T03:27:57.525Z,0
2022-09-26T03:28:57.525Z,0
2022-09-26T03:30:00.324Z,0
2022-09-26T03:30:57.676Z,0
2022-09-26T03:31:58.044Z,0
2022-09-26T03:32:57.368Z,0
2022-09-26T03:33:57.533Z,0
2022-09-26T03:35:00.398Z,0
2022-09-26T03:35:57.555Z,0
2022-09-26T03:36:57.563Z,0
2022-09-26T03:37:57.571Z,0
2022-09-26T03:38:57.570Z,0
2022-09-26T03:39:57.725Z,0
2022-09-26T03:41:01.140Z,0
2022-09-26T03:41:57.614Z,0
2022-09-26T03:42:57.556Z,0
2022-09-26T03:43:57.545Z,0
2022-09-26T03:44:57.549Z,0
2022-09-26T03:46:00.979Z,0
2022-09-26T03:46:57.564Z,0
2022-09-26T03:47:57.591Z,0
2022-09-26T03:48:57.574Z,0
2022-09-26T03:49:57.606Z,0
2022-09-26T03:50:57.561Z,0
2022-09-26T03:52:00.707Z,0
2022-09-26T03:52:57.586Z,0
2022-09-26T03:53:57.588Z,0
2022-09-26T03:54:57.574Z,0
2022-09-26T03:55:57.583Z,0
2022-09-26T03:57:00.943Z,0
2022-09-26T03:57:57.613Z,0
2022-09-26T03:58:57.604Z,0
2022-09-26T03:59:57.637Z,0
2022-09-26T04:00:57.888Z,0
2022-09-26T04:01:58.070Z,0
2022-09-26T04:03:00.350Z,0
2022-09-26T04:03:58.273Z,0
2022-09-26T04:04:57.614Z,0
2022-09-26T04:05:57.599Z,0
2022-09-26T04:06:57.606Z,0
2022-09-26T04:08:00.440Z,0
2022-09-26T04:08:57.595Z,0
2022-09-26T04:09:57.662Z,0
2022-09-26T04:10:57.605Z,0
2022-09-26T04:11:57.639Z,0
2022-09-26T04:12:57.611Z,0
2022-09-26T04:14:02.846Z,0
2022-09-26T04:14:57.604Z,0
2022-09-26T04:15:57.799Z,0
2022-09-26T04:16:57.861Z,0
2022-09-26T04:17:57.681Z,0
2022-09-26T04:19:00.659Z,0
2022-09-26T04:19:57.617Z,0
2022-09-26T04:20:57.627Z,0
2022-09-26T04:21:57.667Z,0
2022-09-26T04:22:57.610Z,0
2022-09-26T04:23:57.632Z,0
2022-09-26T04:25:00.451Z,0
2022-09-26T04:25:57.649Z,0
2022-09-26T04:26:57.658Z,0
2022-09-26T04:27:57.640Z,0
2022-09-26T04:28:57.948Z,0
2022-09-26T04:30:00.446Z,0
2022-09-26T04:30:57.634Z,0
2022-09-26T04:31:58.150Z,0
2022-09-26T04:32:57.623Z,0
2022-09-26T04:33:57.710Z,0
2022-09-26T04:34:57.801Z,0
2022-09-26T04:36:00.464Z,0
2022-09-26T04:36:57.696Z,0
2022-09-26T04:37:57.636Z,0
2022-09-26T04:38:57.632Z,0
2022-09-26T04:39:57.652Z,0
2022-09-26T04:41:00.851Z,0
2022-09-26T04:41:57.689Z,0
2022-09-26T04:42:57.640Z,0
2022-09-26T04:43:57.670Z,0
2022-09-26T04:44:57.640Z,0
2022-09-26T04:45:58.118Z,0
2022-09-26T04:46:57.714Z,0
2022-09-26T04:47:57.665Z,0
2022-09-26T04:48:57.705Z,0
2022-09-26T04:49:57.800Z,0
2022-09-26T04:50:57.777Z,0
2022-09-26T04:52:00.472Z,0
2022-09-26T04:52:57.677Z,4
2022-09-26T04:53:57.668Z,4
2022-09-26T04:54:57.680Z,0
2022-09-26T04:55:57.675Z,0
2022-09-26T04:56:58.089Z,0
2022-09-26T04:57:57.705Z,4
2022-09-26T04:58:57.727Z,0
2022-09-26T04:59:57.667Z,4
2022-09-26T05:00:58.020Z,4
2022-09-26T05:02:00.787Z,4
2022-09-26T05:03:01.424Z,4
2022-09-26T05:03:57.687Z,4
2022-09-26T05:04:57.880Z,4
2022-09-26T05:05:57.843Z,4
2022-09-26T05:06:57.996Z,8
2022-09-26T05:07:57.723Z,4
2022-09-26T05:08:57.691Z,8
2022-09-26T05:09:57.708Z,8
2022-09-26T05:10:57.705Z,8
2022-09-26T05:11:57.689Z,12
2022-09-26T05:12:57.723Z,8
2022-09-26T05:14:00.623Z,12
2022-09-26T05:14:57.698Z,12
2022-09-26T05:15:58.176Z,16
2022-09-26T05:16:57.849Z,16
2022-09-26T05:17:57.763Z,16
2022-09-26T05:18:57.715Z,16
2022-09-26T05:19:57.704Z,16
2022-09-26T05:20:57.794Z,20
2022-09-26T05:21:57.779Z,20
2022-09-26T05:22:57.800Z,24
2022-09-26T05:23:57.779Z,24
2022-09-26T05:24:57.719Z,24
2022-09-26T05:25:57.708Z,28
2022-09-26T05:26:57.747Z,32
2022-09-26T05:27:57.944Z,28
2022-09-26T05:28:57.770Z,32
2022-09-26T05:29:57.876Z,32
2022-09-26T05:30:57.736Z,36
2022-09-26T05:31:58.211Z,40
2022-09-26T05:32:57.746Z,44
2022-09-26T05:33:57.744Z,44
2022-09-26T05:35:00.527Z,48
2022-09-26T05:35:57.742Z,48
2022-09-26T05:36:57.925Z,48
2022-09-26T05:37:57.815Z,52
2022-09-26T05:38:57.840Z,52
2022-09-26T05:39:57.771Z,56
2022-09-26T05:40:58.199Z,60
2022-09-26T05:41:57.822Z,60
2022-09-26T05:42:57.761Z,68
2022-09-26T05:43:57.859Z,76
2022-09-26T05:45:00.857Z,80
2022-09-26T05:46:01.417Z,80
2022-09-26T05:46:58.410Z,80
2022-09-26T05:47:57.996Z,80
2022-09-26T05:48:58.271Z,88
2022-09-26T05:49:57.893Z,88
2022-09-26T05:50:57.905Z,96
2022-09-26T05:51:57.779Z,100
2022-09-26T05:52:57.809Z,108
2022-09-26T05:53:57.917Z,112
2022-09-26T05:55:10.748Z,120
2022-09-26T05:55:57.784Z,124
2022-09-26T05:57:00.791Z,144
2022-09-26T05:57:57.856Z,160
2022-09-26T05:58:57.789Z,172
2022-09-26T05:59:57.800Z,220
2022-09-26T06:00:58.106Z,236
2022-09-26T06:02:01.322Z,228
2022-09-26T06:02:57.825Z,232
2022-09-26T06:03:57.784Z,228
2022-09-26T06:04:57.792Z,228
2022-09-26T06:05:57.783Z,228
2022-09-26T06:06:57.791Z,224
2022-09-26T06:08:03.565Z,224
2022-09-26T06:08:57.810Z,236
2022-09-26T06:09:58.130Z,256
2022-09-26T06:10:57.906Z,244
2022-09-26T06:11:58.014Z,236
2022-09-26T06:12:59.012Z,256
2022-09-26T06:13:57.804Z,228
2022-09-26T06:14:57.804Z,208
2022-09-26T06:15:58.819Z,216
2022-09-26T06:16:58.063Z,216
2022-09-26T06:17:57.873Z,276
2022-09-26T06:19:00.877Z,524
2022-09-26T06:19:57.966Z,748
2022-09-26T06:20:57.848Z,1132
2022-09-26T06:21:57.829Z,1228
2022-09-26T06:23:00.878Z,1212
2022-09-26T06:24:00.843Z,1200
2022-09-26T06:24:58.083Z,1204
2022-09-26T06:25:58.011Z,1232
2022-09-26T06:26:57.836Z,1232
2022-09-26T06:28:04.286Z,1224
2022-09-26T06:28:57.816Z,1224
2022-09-26T06:30:00.760Z,1236
2022-09-26T06:30:57.944Z,1236
2022-09-26T06:31:58.041Z,1244
2022-09-26T06:32:57.851Z,1248
2022-09-26T06:33:57.989Z,1208
2022-09-26T06:35:00.581Z,1212
2022-09-26T06:35:57.831Z,1212
2022-09-26T06:36:57.837Z,1188
2022-09-26T06:37:57.866Z,1216
2022-09-26T06:38:57.889Z,1184
2022-09-26T06:40:04.166Z,1224
2022-09-26T06:41:01.383Z,1232
2022-09-26T06:41:57.896Z,1252
2022-09-26T06:42:57.900Z,1284
2022-09-26T06:43:57.844Z,1288
2022-09-26T06:44:57.851Z,1312
2022-09-26T06:46:00.965Z,1320
2022-09-26T06:46:58.332Z,1328
2022-09-26T06:47:58.046Z,1348
2022-09-26T06:48:57.862Z,1368
2022-09-26T06:49:57.973Z,1372
2022-09-26T06:50:57.691Z,1384
2022-09-26T06:52:00.636Z,1396
2022-09-26T06:52:57.866Z,1416
2022-09-26T06:53:57.937Z,1408
2022-09-26T06:54:57.871Z,1404
2022-09-26T06:55:57.857Z,1476
2022-09-26T06:57:00.792Z,1452
2022-09-26T06:57:57.924Z,1440
2022-09-26T06:58:57.929Z,1460
2022-09-26T06:59:57.892Z,1496
2022-09-26T07:00:58.488Z,1512
2022-09-26T07:01:58.507Z,1508
2022-09-26T07:03:00.647Z,1564
2022-09-26T07:03:59.191Z,1624
2022-09-26T07:04:57.882Z,1596
2022-09-26T07:05:57.943Z,1272
2022-09-26T07:07:00.722Z,1656
2022-09-26T07:08:02.905Z,1628
2022-09-26T07:09:23.511Z,1708
2022-09-26T07:09:58.817Z,1724
2022-09-26T07:11:31.008Z,1344
2022-09-26T07:12:21.562Z,1792
2022-09-26T07:13:03.687Z,1660
2022-09-26T07:14:07.025Z,1532
2022-09-26T07:15:03.677Z,1580
2022-09-26T07:16:04.038Z,1760
2022-09-26T07:17:03.681Z,1852
2022-09-26T07:18:03.726Z,1812
2022-09-26T07:19:03.705Z,1812
2022-09-26T07:20:03.726Z,1772
2022-09-26T07:21:03.948Z,1780
2022-09-26T07:22:03.703Z,1808
2022-09-26T07:23:03.720Z,1744
2022-09-26T07:24:03.703Z,1800
2022-09-26T07:25:03.696Z,1840
2022-09-26T07:26:03.707Z,1764
2022-09-26T07:27:03.712Z,1852
2022-09-26T07:28:03.787Z,1456
2022-09-26T07:29:03.714Z,1880
2022-09-26T07:30:03.755Z,1780
2022-09-26T07:31:04.079Z,1732
2022-09-26T07:32:06.995Z,1904
2022-09-26T07:33:03.905Z,1508
2022-09-26T07:34:03.735Z,1848
2022-09-26T07:35:03.736Z,1832
2022-09-26T07:36:12.821Z,612
2022-09-26T07:37:03.768Z,1880
2022-09-26T07:38:03.746Z,1768
2022-09-26T07:39:03.737Z,1772
2022-09-26T07:40:09.309Z,1820
2022-09-26T07:41:07.200Z,1828
2022-09-26T07:42:04.945Z,1800
2022-09-26T07:45:42.006Z,1712
2022-09-26T07:46:42.349Z,1744
2022-09-26T07:47:41.931Z,1884
2022-09-26T07:48:41.953Z,1824
2022-09-26T07:49:41.948Z,1724
2022-09-26T07:50:41.950Z,1808
2022-09-26T07:51:41.943Z,1816
2022-09-26T07:52:41.954Z,1792
2022-09-26T07:53:41.958Z,1736
2022-09-26T07:54:42.066Z,1748
2022-09-26T07:55:44.845Z,1712
2022-09-26T07:56:41.948Z,1724
2022-09-26T07:57:41.947Z,1720
2022-09-26T07:58:42.015Z,1724
2022-09-26T07:59:41.971Z,1752
2022-09-26T08:00:41.988Z,1744
2022-09-26T08:01:42.384Z,1732
2022-09-26T08:02:42.468Z,1740
2022-09-26T08:03:41.973Z,1724
2022-09-26T08:04:41.958Z,1756
2022-09-26T08:05:41.985Z,1732
2022-09-26T08:06:45.101Z,1724
2022-09-26T08:07:42.253Z,1740
2022-09-26T08:08:42.008Z,1712
2022-09-26T08:09:42.052Z,1684
2022-09-26T08:10:41.975Z,1684
2022-09-26T08:11:44.797Z,1700
2022-09-26T08:12:41.986Z,1688
2022-09-26T08:13:41.997Z,1680
2022-09-26T08:14:42.006Z,1648
2022-09-26T08:15:42.154Z,1696
2022-09-26T08:16:42.237Z,1676
2022-09-26T08:17:42.019Z,1664
2022-09-26T08:18:42.117Z,1660
2022-09-26T08:19:41.990Z,1668
2022-09-26T08:20:42.012Z,1696
2022-09-26T08:21:41.993Z,1688
2022-09-26T08:22:42.012Z,1656
2022-09-26T08:23:42.028Z,1680
2022-09-26T08:24:42.073Z,1664
2022-09-26T08:25:41.998Z,1676
2022-09-26T08:26:48.713Z,1660
2022-09-26T08:27:42.001Z,1628
2022-09-26T08:28:42.024Z,1680
2022-09-26T08:29:42.164Z,1664
2022-09-26T08:30:42.030Z,1692
2022-09-26T08:31:42.651Z,1692
2022-09-26T08:32:42.022Z,1684
2022-09-26T08:33:42.088Z,1684
2022-09-26T08:34:42.054Z,1684
2022-09-26T08:35:42.066Z,1652
2022-09-26T08:36:42.018Z,1688
2022-09-26T08:37:42.082Z,1692
2022-09-26T08:38:45.072Z,1700
2022-09-26T08:39:42.018Z,1696
2022-09-26T08:40:42.387Z,1704
2022-09-26T08:41:42.067Z,1720
2022-09-26T08:42:42.025Z,1700
2022-09-26T08:43:42.053Z,1636
2022-09-26T08:44:42.022Z,1672
2022-09-26T08:45:47.825Z,1724
2022-09-26T08:46:42.363Z,1724
2022-09-26T08:47:42.085Z,1716
2022-09-26T08:48:42.059Z,1716
2022-09-26T08:49:45.212Z,1728
2022-09-26T08:50:42.059Z,1720
2022-09-26T08:51:42.053Z,1752
2022-09-26T08:52:42.066Z,1736
2022-09-26T08:53:42.068Z,1740
2022-09-26T08:54:44.799Z,1744
2022-09-26T08:55:42.124Z,1740
2022-09-26T08:56:42.079Z,1768
2022-09-26T08:57:42.268Z,1792
2022-09-26T08:58:42.078Z,1800
2022-09-26T08:59:43.139Z,1832
2022-09-26T09:00:44.839Z,1856
2022-09-26T09:01:42.603Z,1868
2022-09-26T09:02:42.881Z,1916
2022-09-26T09:03:42.102Z,1868
2022-09-26T09:04:42.085Z,1348
2022-09-26T09:05:44.910Z,1848
2022-09-26T09:06:42.138Z,1868
2022-09-26T09:07:42.086Z,1180
2022-09-26T09:08:42.104Z,1116
2022-09-26T09:09:42.075Z,836
2022-09-26T09:10:42.081Z,1812
2022-09-26T09:11:48.002Z,2404
2022-09-26T09:12:42.126Z,2000
2022-09-26T09:13:42.102Z,3244
2022-09-26T09:14:42.101Z,1164
2022-09-26T09:15:42.563Z,1268
2022-09-26T09:16:45.191Z,2956
2022-09-26T09:17:42.107Z,1784
2022-09-26T09:18:42.167Z,2668
2022-09-26T09:19:42.124Z,1864
2022-09-26T09:20:42.112Z,964
2022-09-26T09:21:48.276Z,860
2022-09-26T09:22:44.967Z,3700
2022-09-26T09:23:42.135Z,3888
2022-09-26T09:24:42.120Z,3716
2022-09-26T09:25:42.111Z,2736
2022-09-26T09:28:07.880Z,3036
2022-09-26T09:29:23.805Z,3100
2022-09-26T09:30:23.764Z,2724
2022-09-26T09:31:18.186Z,2712
2022-09-26T09:32:17.705Z,700
2022-09-26T09:33:17.703Z,800
2022-09-26T09:34:18.180Z,1040
2022-09-26T09:35:17.731Z,1012
2022-09-26T09:36:18.423Z,1016
2022-09-26T09:37:17.736Z,956
2022-09-26T09:38:17.718Z,1036
2022-09-26T09:39:17.729Z,2116
2022-09-26T09:40:18.107Z,1144
2022-09-26T09:41:17.711Z,668
2022-09-26T09:42:17.720Z,748
2022-09-26T09:43:17.717Z,776
2022-09-26T09:44:19.006Z,1624
2022-09-26T09:45:17.774Z,1480
2022-09-26T09:46:18.121Z,824
2022-09-26T09:47:20.503Z,1936
2022-09-26T09:48:17.740Z,2096
2022-09-26T09:49:17.760Z,2100
2022-09-26T09:50:17.946Z,1532
2022-09-26T09:51:17.767Z,960
2022-09-26T09:52:20.788Z,2028
2022-09-26T09:53:17.747Z,2028
2022-09-26T09:54:18.034Z,1760
2022-09-26T09:55:17.742Z,1128
2022-09-26T09:56:17.740Z,2220
2022-09-26T09:57:17.737Z,2136
2022-09-26T09:58:20.840Z,860
2022-09-26T09:59:17.769Z,1632
2022-09-26T10:00:17.918Z,892
2022-09-26T10:01:26.952Z,1256
2022-09-26T10:02:17.751Z,2292
2022-09-26T10:03:23.768Z,2360
2022-09-26T10:04:17.991Z,1656
2022-09-26T10:05:17.769Z,1400
2022-09-26T10:06:52.316Z,1588
2022-09-26T10:07:17.778Z,2128
2022-09-26T10:08:17.804Z,2228
2022-09-26T10:09:45.910Z,2164
2022-09-26T10:10:17.837Z,2088
2022-09-26T10:11:17.760Z,2040
2022-09-26T10:12:17.768Z,1384
2022-09-26T10:13:17.781Z,2072
2022-09-26T10:14:19.435Z,1420
2022-09-26T10:15:17.789Z,1480
2022-09-26T10:16:18.288Z,1396
2022-09-26T10:17:17.789Z,1220
2022-09-26T10:18:34.210Z,2076
2022-09-26T10:19:17.813Z,1344
2022-09-26T10:20:20.525Z,2104
2022-09-26T10:21:17.885Z,1060
2022-09-26T10:22:17.850Z,2060
2022-09-26T10:23:17.834Z,2120
2022-09-26T10:24:18.014Z,2000
2022-09-26T10:25:20.623Z,864
2022-09-26T10:26:17.793Z,1240
2022-09-26T10:27:19.260Z,848
2022-09-26T10:28:17.631Z,1020
2022-09-26T10:29:17.659Z,1672
2022-09-26T10:30:17.920Z,844
2022-09-26T10:31:21.167Z,848
2022-09-26T10:32:17.850Z,804
2022-09-26T10:33:17.867Z,584
2022-09-26T10:34:18.086Z,512
2022-09-26T10:35:23.343Z,540
2022-09-26T10:36:20.698Z,1084
2022-09-26T10:37:17.818Z,668
2022-09-26T10:38:17.873Z,624
2022-09-26T10:39:17.840Z,564
2022-09-26T10:40:18.420Z,552
2022-09-26T10:41:17.826Z,608
2022-09-26T10:42:20.958Z,572
2022-09-26T10:43:17.831Z,564
2022-09-26T10:44:18.188Z,612
2022-09-26T10:45:17.829Z,1000
2022-09-26T10:46:18.240Z,1480
2022-09-26T10:47:20.754Z,1208
2022-09-26T10:48:17.870Z,840
2022-09-26T10:49:17.853Z,1924
2022-09-26T10:50:17.901Z,1488
2022-09-26T10:51:17.845Z,1248
2022-09-26T10:52:24.373Z,968
2022-09-26T10:53:21.007Z,1052
2022-09-26T10:54:18.179Z,856
2022-09-26T10:55:18.935Z,1528
2022-09-26T10:56:17.902Z,1380
2022-09-26T10:57:17.872Z,948
2022-09-26T10:58:21.049Z,868
2022-09-26T10:59:17.889Z,856
2022-09-26T11:00:17.853Z,1412
2022-09-26T11:01:18.022Z,1336
2022-09-26T11:02:18.104Z,1032
2022-09-26T11:03:18.183Z,964
2022-09-26T11:04:21.467Z,884
2022-09-26T11:05:17.864Z,656
2022-09-26T11:06:23.825Z,724
2022-09-26T11:07:17.869Z,1572
2022-09-26T11:08:17.865Z,1620
2022-09-26T11:09:20.868Z,1596
2022-09-26T11:10:17.996Z,1140
2022-09-26T11:11:17.879Z,1632
2022-09-26T11:12:20.886Z,796
2022-09-26T11:13:17.881Z,1236
2022-09-26T11:14:22.949Z,1388
2022-09-26T11:15:17.894Z,1348
2022-09-26T11:16:18.536Z,960
2022-09-26T11:17:17.899Z,1584
2022-09-26T11:18:17.880Z,1104
2022-09-26T11:19:18.476Z,624
2022-09-26T11:20:20.723Z,1660
2022-09-26T11:21:37.460Z,1512
2022-09-26T11:22:17.971Z,1132
2022-09-26T11:23:17.916Z,596
2022-09-26T11:24:18.202Z,680
2022-09-26T11:25:17.989Z,1108
2022-09-26T11:26:17.910Z,1528
2022-09-26T11:27:17.895Z,1644
2022-09-26T11:28:17.933Z,904
2022-09-26T11:29:18.075Z,612
2022-09-26T11:30:17.960Z,612
2022-09-26T11:31:25.714Z,608
2022-09-26T11:32:17.945Z,592
2022-09-26T11:33:17.934Z,596
2022-09-26T11:34:18.169Z,596
2022-09-26T11:35:17.986Z,596
2022-09-26T11:36:17.964Z,588
2022-09-26T11:37:17.943Z,600
2022-09-26T11:38:17.941Z,764
2022-09-26T11:39:18.229Z,620
2022-09-26T11:40:18.305Z,616
2022-09-26T11:41:17.984Z,704
2022-09-26T11:42:17.956Z,660
2022-09-26T11:43:17.936Z,660
2022-09-26T11:44:18.244Z,660
2022-09-26T11:45:17.953Z,644
2022-09-26T11:46:18.232Z,648
2022-09-26T11:47:20.727Z,656
2022-09-26T11:48:17.950Z,656
2022-09-26T11:49:17.944Z,656
2022-09-26T11:50:18.085Z,656
2022-09-26T11:51:17.967Z,644
2022-09-26T11:52:18.007Z,616
2022-09-26T11:53:17.959Z,580
2022-09-26T11:54:18.204Z,572
2022-09-26T11:55:18.001Z,576
2022-09-26T11:56:17.984Z,580
2022-09-26T11:57:18.043Z,580
2022-09-26T11:58:17.978Z,580
2022-09-26T11:59:19.055Z,588
2022-09-26T12:00:18.046Z,588
2022-09-26T12:01:17.972Z,584
2022-09-26T12:02:18.341Z,580
2022-09-26T12:03:21.731Z,564
2022-09-26T12:04:19.115Z,564
2022-09-26T12:05:18.038Z,572
2022-09-26T12:06:18.004Z,584
2022-09-26T12:07:18.043Z,608
2022-09-26T12:08:20.797Z,628
2022-09-26T12:09:17.994Z,680
2022-09-26T12:10:18.032Z,804
2022-09-26T12:11:18.009Z,828
2022-09-26T12:12:17.981Z,908
2022-09-26T12:13:18.068Z,1068
2022-09-26T12:14:21.084Z,1196
2022-09-26T12:15:18.007Z,1064
2022-09-26T12:16:18.509Z,1072
2022-09-26T12:17:18.027Z,1040
2022-09-26T12:18:18.001Z,848
2022-09-26T12:19:23.097Z,844
2022-09-26T12:20:18.020Z,892
2022-09-26T12:21:18.028Z,1012
2022-09-26T12:22:18.020Z,844
2022-09-26T12:23:18.012Z,984
2022-09-26T12:24:18.278Z,1472
2022-09-26T12:25:23.807Z,1368
2022-09-26T12:26:18.012Z,1324
2022-09-26T12:27:18.031Z,1328
2022-09-26T12:28:18.050Z,644
2022-09-26T12:29:18.060Z,840
2022-09-26T12:30:18.576Z,1068
2022-09-26T12:31:27.594Z,548
2022-09-26T12:32:18.023Z,536
2022-09-26T12:33:18.074Z,680
2022-09-26T12:34:18.097Z,584
2022-09-26T12:35:18.063Z,592
2022-09-26T12:36:20.793Z,568
2022-09-26T12:37:18.233Z,548
2022-09-26T12:38:18.037Z,504
2022-09-26T12:39:18.312Z,488
2022-09-26T12:40:18.549Z,512
2022-09-26T12:41:20.841Z,608
2022-09-26T12:42:18.042Z,684
2022-09-26T12:43:18.048Z,560
2022-09-26T12:44:18.040Z,520
2022-09-26T12:45:18.146Z,480
2022-09-26T12:46:18.413Z,444
2022-09-26T12:47:21.134Z,412
2022-09-26T12:48:18.044Z,396
2022-09-26T12:49:18.198Z,384
2022-09-26T12:50:18.093Z,368
2022-09-26T12:51:18.071Z,356
2022-09-26T12:52:25.065Z,320
2022-09-26T12:53:18.114Z,312
2022-09-26T12:54:18.070Z,304
2022-09-26T12:55:18.094Z,292
2022-09-26T12:56:18.091Z,276
2022-09-26T12:57:21.283Z,280
2022-09-26T12:58:21.141Z,284
2022-09-26T12:59:18.362Z,292
2022-09-26T13:00:18.097Z,304
2022-09-26T13:01:18.463Z,316
2022-09-26T13:02:18.241Z,324
2022-09-26T13:03:21.268Z,340
2022-09-26T13:04:18.089Z,356
2022-09-26T13:05:18.182Z,384
2022-09-26T13:06:18.082Z,440
2022-09-26T13:07:27.102Z,500
2022-09-26T13:08:18.095Z,556
2022-09-26T13:09:21.198Z,564
2022-09-26T13:10:18.104Z,592
2022-09-26T13:11:18.085Z,516
2022-09-26T13:12:19.164Z,464
2022-09-26T13:13:17.944Z,712
2022-09-26T13:14:21.179Z,428
2022-09-26T13:15:18.154Z,412
2022-09-26T13:16:18.568Z,400
2022-09-26T13:17:18.163Z,388
2022-09-26T13:18:19.958Z,392
2022-09-26T13:19:18.222Z,940
2022-09-26T13:20:21.175Z,1068
2022-09-26T13:21:18.117Z,1140
2022-09-26T13:22:18.103Z,512
2022-09-26T13:23:18.108Z,672
2022-09-26T13:24:18.111Z,596
2022-09-26T13:25:20.121Z,484
2022-09-26T13:26:18.112Z,512
2022-09-26T13:27:18.122Z,676
2022-09-26T13:28:18.170Z,1140
2022-09-26T13:29:31.421Z,1180
2022-09-26T13:30:18.202Z,820
2022-09-26T13:31:21.451Z,540
2022-09-26T13:32:18.131Z,1156
2022-09-26T13:33:18.190Z,1120
2022-09-26T13:34:18.154Z,1128
2022-09-26T13:35:18.174Z,408
2022-09-26T13:36:21.026Z,368
2022-09-26T13:37:18.145Z,332
2022-09-26T13:38:20.874Z,304
2022-09-26T13:39:18.458Z,284
2022-09-26T13:40:18.396Z,260
2022-09-26T13:41:18.483Z,248
2022-09-26T13:42:18.144Z,260
2022-09-26T13:43:24.332Z,280
2022-09-26T13:44:18.411Z,296
2022-09-26T13:45:18.165Z,312
2022-09-26T13:46:18.676Z,320
2022-09-26T13:47:20.942Z,324
2022-09-26T13:48:18.155Z,320
2022-09-26T13:49:18.215Z,320
2022-09-26T13:50:18.176Z,320
2022-09-26T13:51:18.190Z,312
2022-09-26T13:52:18.175Z,300
2022-09-26T13:53:18.168Z,288
2022-09-26T13:54:18.460Z,264
2022-09-26T13:55:18.191Z,248
2022-09-26T13:56:18.180Z,232
2022-09-26T13:57:18.168Z,208
2022-09-26T13:58:21.221Z,188
2022-09-26T13:59:18.188Z,176
2022-09-26T14:00:18.228Z,180
2022-09-26T14:01:18.385Z,192
2022-09-26T14:02:18.527Z,220
2022-09-26T14:03:18.934Z,244
2022-09-26T14:04:18.297Z,268
2022-09-26T14:05:18.275Z,288
2022-09-26T14:06:18.212Z,304
2022-09-26T14:07:18.215Z,312
2022-09-26T14:08:18.186Z,316
2022-09-26T14:09:18.388Z,320